Kahramanmaras, Turkey
Current Conditions -  °F | °C
As of 8:50 AM on Sunday 26 Oct 2014 (Local Time) from LTCN Reporting Station
Broken Clouds Broken Clouds  
Wind Chill: 59°   Ceiling: 10000
Heat Index: 59°   Visibility: 6mi
Dew Point: 54°   Wind: 1mph
Humidity: 82%   Direction: NA
Pressure: 30.06"   Gusts: NA
Location:  37.58°N, 36.93°E
Report Text: LTCN 260550Z VRB01KT 9999 SCT035 BKN100 15/12 Q1018
Loading
Personal Weather Stations






























Interactive Weather Map
Tropical Storm Tracking
New forecast layout! Learn more

10-Day Weather Forecast

Advertisements
Track Severe Weather on mobile